This is the latest recevied weather packets stored in our database for station/object CA3DJL-10. If no packets are shown the sender has not sent any weather packets the latest 10 day(s).
| Time | Temp. | Humidity | Pressure | Rain* | Wind** | Luminosity | Snow |
|---|---|---|---|---|---|---|---|
| 1777873227 | 17.22° C | 26% | 986 hPa | - | - | - | - |
| 1777872326 | 17.78° C | 25% | 986 hPa | - | - | - | - |
| 1777871425 | 18.33° C | 25% | 986 hPa | - | - | - | - |
| 1777870524 | 18.33° C | 25% | 986 hPa | - | - | - | - |
| 1777869622 | 18.89° C | 25% | 986 hPa | - | - | - | - |
| 1777868721 | 19.44° C | 25% | 986 hPa | - | - | - | - |
| 1777867820 | 19.44° C | 25% | 986 hPa | - | - | - | - |
| 1777866919 | 20° C | 25% | 986 hPa | - | - | - | - |
| 1777866018 | 20° C | 25% | 986 hPa | - | - | - | - |
| 1777865117 | 20.56° C | 25% | 986 hPa | - | - | - | - |
| 1777839886 | 34.44° C | 19% | 984 hPa | - | - | - | - |
| 1777833578 | 32.78° C | 24% | 985 hPa | - | - | - | - |
| 1777828172 | 29.44° C | 28% | 985 hPa | - | - | - | - |
| 1777827271 | 28.89° C | 30% | 986 hPa | - | - | - | - |
| 1777823666 | 25° C | 33% | 986 hPa | - | - | - | - |
| 1777821864 | 23.33° C | 35% | 986 hPa | - | - | - | - |
| 1777810150 | 12.78° C | 36% | 986 hPa | - | - | - | - |
| 1777809249 | 12.22° C | 38% | 986 hPa | - | - | - | - |
| 1777804743 | 13.33° C | 34% | 985 hPa | - | - | - | - |
| 1777803842 | 13.89° C | 34% | 985 hPa | - | - | - | - |
| 1777802941 | 13.89° C | 35% | 985 hPa | - | - | - | - |
| 1777802040 | 13.89° C | 35% | 986 hPa | - | - | - | - |
| 1777801138 | 13.89° C | 38% | 986 hPa | - | - | - | - |
| 1777800237 | 14.44° C | 37% | 985 hPa | - | - | - | - |
| 1777799336 | 15° C | 33% | 985 hPa | - | - | - | - |
* Rain since midnight (hover to see other rain measurements)
** Current wind speed in m/s (hover to see current wind gust speed)